Adna, WA

11:05 AM PDT on August 27, 2014 (GMT -0700)
Chehalis-Centralia | Change Station
CLOSE
Current Station
Airport
Location: Chehalis,
Elevation: 177 ft
Nearby Weather Stations

Elev 177 ft 46.68 °N, 122.98 °W | Updated 10 minutes ago

Clear
Clear
72 °F
Feels Like 72 °F
N
0
Wind Variable Wind from North

Today
High -- | Low -- °F
--% Chance of Precip.
Yesterday
High -- | Low -- °F
Precip. -- in
6:26 AM 8:01 PM
Waxing Crescent, 4% visible
Pressure 30.06 in
Visibility 10.0 miles
Clouds Clear
Dew Point 61 °F
Humidity 69%
Rainfall 0.00 in
Snow Depth Not available.
UV 6 out of 12
Pollen 3.50 out of 12
PM2.5 Good
Flu Activity Not available.
METAR KCLS 271755Z AUTO 00000KT 10SM CLR 22/16 A3006 RMK AO2

More Conditions Fewer Conditions

Pressure 30.06 in
Visibility 10.0 miles
Clouds Clear
Dew Point 61 °F
Humidity 69%
Rainfall 0.00 in
Snow Depth Not available.
UV 6 out of 12
Pollen 3.50 out of 12
PM2.5 Good
Flu Activity Not available.
METAR KCLS 271755Z AUTO 00000KT 10SM CLR 22/16 A3006 RMK AO2

More Conditions Fewer Conditions

10-Day Weather Forecast

Almanac

Astronomy

Aug. 27, 2014 Rise Set
Actual Time 6:26 AM PDT 8:01 PM PDT
Civil Twilight 5:55 AM PDT 8:33 PM PDT
Nautical Twilight 5:16 AM PDT 9:11 PM PDT
Astronomical Twilight 4:34 AM PDT 9:52 PM PDT
Moon 8:38 AM PDT 8:45 PM PDT
Length of Visible Light 14h 37m
Length of Day
13h 34m
Tomorrow will be 3m 9s shorter.
Waxing Crescent, 4% of the Moon is Illuminated
Today
Waxing Crescent
Sep 2
First Quarter
Sep 8
Full
Sep 15
Last Quarter
Sep 24
New

Today's Extremes

State Highs State Lows

Community

WunderPhotos

Upload Photos

1,747,747 photos uploaded!

Nearby

Air Quality

  Air Quality AQ Index Pollutant
Yesterday Moderate
PM2.5
Current Good
PM2.5

Snow Depth

Station Depth Elevation
Sheep Canyon 0 in 4030 ft
Swift Creek 0 in 3770 ft
Spencer Meadow 0 in 3400 ft
Burnt Mountain 0 in 4200 ft
Surprise Lakes 0 in 4250 ft

Earthquake Activity

City Distance Mag. Time & Date
No recent earthquake activity has been reported nearby.
Minimum magnitude displayed is 2.5.

Coastal Water Temperatures

Place Temperature
Astoria, OR 70.0 °F
Westport, WA 57.0 °F

Nearby Weather Stations